sensor_id;sensor_type;location;lat;lon;timestamp;P1;durP1;ratioP1;P2;durP2;ratioP2
16731;SDS011;8484;50.904;9.192;2022-10-26T00:02:29;7.10;;;2.93;;
16731;SDS011;8484;50.904;9.192;2022-10-26T00:05:15;2.87;;;2.57;;
16731;SDS011;8484;50.904;9.192;2022-10-26T00:08:01;6.47;;;2.90;;
16731;SDS011;8484;50.904;9.192;2022-10-26T00:10:49;3.50;;;2.47;;
16731;SDS011;8484;50.904;9.192;2022-10-26T00:13:35;3.57;;;2.87;;
16731;SDS011;8484;50.904;9.192;2022-10-26T00:16:22;5.80;;;2.83;;
16731;SDS011;8484;50.904;9.192;2022-10-26T00:19:09;4.30;;;2.70;;
16731;SDS011;8484;50.904;9.192;2022-10-26T00:21:55;4.20;;;2.70;;
16731;SDS011;8484;50.904;9.192;2022-10-26T00:24:40;3.33;;;2.23;;
16731;SDS011;8484;50.904;9.192;2022-10-26T00:27:27;3.50;;;2.40;;
16731;SDS011;8484;50.904;9.192;2022-10-26T00:30:13;4.13;;;2.53;;
16731;SDS011;8484;50.904;9.192;2022-10-26T00:32:58;3.67;;;2.57;;
16731;SDS011;8484;50.904;9.192;2022-10-26T00:35:46;4.60;;;2.40;;
16731;SDS011;8484;50.904;9.192;2022-10-26T00:38:31;4.10;;;2.67;;
16731;SDS011;8484;50.904;9.192;2022-10-26T00:41:17;4.40;;;2.60;;
16731;SDS011;8484;50.904;9.192;2022-10-26T00:47:26;5.53;;;2.90;;
16731;SDS011;8484;50.904;9.192;2022-10-26T00:50:18;4.63;;;2.90;;
16731;SDS011;8484;50.904;9.192;2022-10-26T00:53:08;4.17;;;3.10;;
16731;SDS011;8484;50.904;9.192;2022-10-26T00:55:54;3.43;;;2.90;;
16731;SDS011;8484;50.904;9.192;2022-10-26T00:58:41;5.07;;;2.70;;
16731;SDS011;8484;50.904;9.192;2022-10-26T01:01:27;5.13;;;3.20;;
16731;SDS011;8484;50.904;9.192;2022-10-26T01:04:16;5.30;;;3.07;;
16731;SDS011;8484;50.904;9.192;2022-10-26T01:07:02;4.97;;;3.40;;
16731;SDS011;8484;50.904;9.192;2022-10-26T01:09:49;3.50;;;2.70;;
16731;SDS011;8484;50.904;9.192;2022-10-26T01:12:36;5.30;;;2.93;;
16731;SDS011;8484;50.904;9.192;2022-10-26T01:15:23;4.80;;;3.30;;
16731;SDS011;8484;50.904;9.192;2022-10-26T01:18:16;3.97;;;3.17;;
16731;SDS011;8484;50.904;9.192;2022-10-26T01:24:32;5.83;;;3.27;;
16731;SDS011;8484;50.904;9.192;2022-10-26T01:27:29;6.23;;;3.27;;
16731;SDS011;8484;50.904;9.192;2022-10-26T01:30:27;5.77;;;3.10;;
16731;SDS011;8484;50.904;9.192;2022-10-26T01:36:25;5.43;;;3.20;;
16731;SDS011;8484;50.904;9.192;2022-10-26T01:39:16;3.57;;;2.73;;
16731;SDS011;8484;50.904;9.192;2022-10-26T01:42:06;6.40;;;2.87;;
16731;SDS011;8484;50.904;9.192;2022-10-26T01:44:55;2.90;;;2.27;;
16731;SDS011;8484;50.904;9.192;2022-10-26T01:47:46;4.63;;;2.33;;
16731;SDS011;8484;50.904;9.192;2022-10-26T01:50:32;5.80;;;2.63;;
16731;SDS011;8484;50.904;9.192;2022-10-26T01:53:19;6.70;;;2.60;;
16731;SDS011;8484;50.904;9.192;2022-10-26T01:56:04;3.53;;;2.20;;
16731;SDS011;8484;50.904;9.192;2022-10-26T02:02:25;3.90;;;2.37;;
16731;SDS011;8484;50.904;9.192;2022-10-26T02:05:52;4.03;;;2.50;;
16731;SDS011;8484;50.904;9.192;2022-10-26T02:08:51;6.57;;;2.97;;
16731;SDS011;8484;50.904;9.192;2022-10-26T02:11:42;3.63;;;2.30;;
16731;SDS011;8484;50.904;9.192;2022-10-26T02:14:31;3.40;;;2.47;;
16731;SDS011;8484;50.904;9.192;2022-10-26T02:17:22;5.47;;;2.60;;
16731;SDS011;8484;50.904;9.192;2022-10-26T02:20:12;3.77;;;2.57;;
16731;SDS011;8484;50.904;9.192;2022-10-26T02:23:06;2.80;;;2.50;;
16731;SDS011;8484;50.904;9.192;2022-10-26T02:25:55;4.90;;;2.40;;
16731;SDS011;8484;50.904;9.192;2022-10-26T02:28:44;2.83;;;2.17;;
16731;SDS011;8484;50.904;9.192;2022-10-26T02:31:33;3.30;;;2.10;;
16731;SDS011;8484;50.904;9.192;2022-10-26T02:34:21;4.93;;;1.97;;
16731;SDS011;8484;50.904;9.192;2022-10-26T02:37:12;4.30;;;2.37;;
16731;SDS011;8484;50.904;9.192;2022-10-26T02:40:01;4.57;;;2.03;;
16731;SDS011;8484;50.904;9.192;2022-10-26T02:42:50;4.40;;;1.97;;
16731;SDS011;8484;50.904;9.192;2022-10-26T02:45:37;4.27;;;1.93;;
16731;SDS011;8484;50.904;9.192;2022-10-26T02:48:27;2.47;;;1.80;;
16731;SDS011;8484;50.904;9.192;2022-10-26T02:51:13;6.33;;;2.20;;
16731;SDS011;8484;50.904;9.192;2022-10-26T02:54:04;4.03;;;2.00;;
16731;SDS011;8484;50.904;9.192;2022-10-26T02:56:59;5.57;;;1.83;;
16731;SDS011;8484;50.904;9.192;2022-10-26T02:59:49;6.87;;;2.27;;
16731;SDS011;8484;50.904;9.192;2022-10-26T03:02:36;3.63;;;1.90;;
16731;SDS011;8484;50.904;9.192;2022-10-26T03:05:22;3.40;;;2.00;;
16731;SDS011;8484;50.904;9.192;2022-10-26T03:08:09;5.23;;;2.00;;
16731;SDS011;8484;50.904;9.192;2022-10-26T03:10:55;4.37;;;2.00;;
16731;SDS011;8484;50.904;9.192;2022-10-26T03:13:42;2.20;;;1.90;;
16731;SDS011;8484;50.904;9.192;2022-10-26T03:16:27;3.83;;;2.00;;
16731;SDS011;8484;50.904;9.192;2022-10-26T03:19:12;4.83;;;1.93;;
16731;SDS011;8484;50.904;9.192;2022-10-26T03:21:58;3.50;;;2.10;;
16731;SDS011;8484;50.904;9.192;2022-10-26T03:24:44;3.13;;;2.10;;
16731;SDS011;8484;50.904;9.192;2022-10-26T03:27:30;3.13;;;1.97;;
16731;SDS011;8484;50.904;9.192;2022-10-26T03:30:17;4.70;;;2.10;;
16731;SDS011;8484;50.904;9.192;2022-10-26T03:33:02;7.43;;;2.00;;
16731;SDS011;8484;50.904;9.192;2022-10-26T03:35:52;5.10;;;2.00;;
16731;SDS011;8484;50.904;9.192;2022-10-26T03:38:39;3.80;;;2.53;;
16731;SDS011;8484;50.904;9.192;2022-10-26T03:41:25;5.97;;;2.73;;
16731;SDS011;8484;50.904;9.192;2022-10-26T03:44:10;4.20;;;2.80;;
16731;SDS011;8484;50.904;9.192;2022-10-26T03:46:57;5.23;;;2.90;;
16731;SDS011;8484;50.904;9.192;2022-10-26T03:49:42;4.60;;;2.53;;
16731;SDS011;8484;50.904;9.192;2022-10-26T03:52:28;5.77;;;2.60;;
16731;SDS011;8484;50.904;9.192;2022-10-26T03:55:13;3.30;;;2.43;;
16731;SDS011;8484;50.904;9.192;2022-10-26T03:57:59;3.03;;;2.30;;
16731;SDS011;8484;50.904;9.192;2022-10-26T04:00:46;4.73;;;2.30;;
16731;SDS011;8484;50.904;9.192;2022-10-26T04:03:32;2.83;;;2.27;;
16731;SDS011;8484;50.904;9.192;2022-10-26T04:06:18;4.17;;;2.40;;
16731;SDS011;8484;50.904;9.192;2022-10-26T04:09:04;7.30;;;2.60;;
16731;SDS011;8484;50.904;9.192;2022-10-26T04:11:51;2.57;;;2.10;;
16731;SDS011;8484;50.904;9.192;2022-10-26T04:14:36;6.47;;;2.47;;
16731;SDS011;8484;50.904;9.192;2022-10-26T04:17:22;5.00;;;2.40;;
16731;SDS011;8484;50.904;9.192;2022-10-26T04:20:09;3.10;;;2.13;;
16731;SDS011;8484;50.904;9.192;2022-10-26T04:22:55;4.37;;;2.23;;
16731;SDS011;8484;50.904;9.192;2022-10-26T04:25:42;2.77;;;2.13;;
16731;SDS011;8484;50.904;9.192;2022-10-26T04:28:28;3.60;;;2.00;;
16731;SDS011;8484;50.904;9.192;2022-10-26T04:31:13;4.57;;;2.20;;
16731;SDS011;8484;50.904;9.192;2022-10-26T04:33:59;2.50;;;1.80;;
16731;SDS011;8484;50.904;9.192;2022-10-26T04:36:46;2.87;;;1.80;;
16731;SDS011;8484;50.904;9.192;2022-10-26T04:39:31;2.90;;;1.87;;
16731;SDS011;8484;50.904;9.192;2022-10-26T04:42:17;3.50;;;2.00;;
16731;SDS011;8484;50.904;9.192;2022-10-26T04:45:02;6.10;;;1.80;;
16731;SDS011;8484;50.904;9.192;2022-10-26T04:47:57;2.07;;;1.60;;
16731;SDS011;8484;50.904;9.192;2022-10-26T04:50:43;11.17;;;1.63;;
16731;SDS011;8484;50.904;9.192;2022-10-26T04:53:31;3.67;;;1.77;;
16731;SDS011;8484;50.904;9.192;2022-10-26T04:56:16;2.67;;;1.97;;
16731;SDS011;8484;50.904;9.192;2022-10-26T04:59:02;6.90;;;1.97;;
16731;SDS011;8484;50.904;9.192;2022-10-26T05:01:47;3.47;;;1.83;;
16731;SDS011;8484;50.904;9.192;2022-10-26T05:04:33;2.80;;;1.80;;
16731;SDS011;8484;50.904;9.192;2022-10-26T05:07:19;3.33;;;1.80;;
16731;SDS011;8484;50.904;9.192;2022-10-26T05:10:06;3.77;;;2.17;;
16731;SDS011;8484;50.904;9.192;2022-10-26T05:12:52;3.03;;;1.93;;
16731;SDS011;8484;50.904;9.192;2022-10-26T05:15:39;5.40;;;1.90;;
16731;SDS011;8484;50.904;9.192;2022-10-26T05:18:24;2.43;;;1.50;;
16731;SDS011;8484;50.904;9.192;2022-10-26T05:21:10;4.93;;;2.00;;
16731;SDS011;8484;50.904;9.192;2022-10-26T05:24:02;4.30;;;1.97;;
16731;SDS011;8484;50.904;9.192;2022-10-26T05:26:49;4.80;;;1.63;;
16731;SDS011;8484;50.904;9.192;2022-10-26T05:29:34;6.73;;;1.90;;
16731;SDS011;8484;50.904;9.192;2022-10-26T05:32:20;5.57;;;1.80;;
16731;SDS011;8484;50.904;9.192;2022-10-26T05:35:06;3.33;;;1.87;;
16731;SDS011;8484;50.904;9.192;2022-10-26T05:37:52;3.03;;;1.60;;
16731;SDS011;8484;50.904;9.192;2022-10-26T05:40:38;3.63;;;1.63;;
16731;SDS011;8484;50.904;9.192;2022-10-26T05:43:32;3.13;;;1.40;;
16731;SDS011;8484;50.904;9.192;2022-10-26T05:46:17;1.73;;;1.40;;
16731;SDS011;8484;50.904;9.192;2022-10-26T05:49:02;3.10;;;1.67;;
16731;SDS011;8484;50.904;9.192;2022-10-26T05:51:48;3.23;;;1.60;;
16731;SDS011;8484;50.904;9.192;2022-10-26T05:54:34;6.00;;;1.47;;
16731;SDS011;8484;50.904;9.192;2022-10-26T05:57:19;4.53;;;1.47;;
16731;SDS011;8484;50.904;9.192;2022-10-26T06:00:14;3.70;;;1.20;;
16731;SDS011;8484;50.904;9.192;2022-10-26T06:03:07;5.90;;;2.10;;
16731;SDS011;8484;50.904;9.192;2022-10-26T06:06:03;4.20;;;1.50;;
16731;SDS011;8484;50.904;9.192;2022-10-26T06:08:51;4.50;;;1.30;;
16731;SDS011;8484;50.904;9.192;2022-10-26T06:11:37;2.80;;;1.50;;
16731;SDS011;8484;50.904;9.192;2022-10-26T06:14:23;6.97;;;1.60;;
16731;SDS011;8484;50.904;9.192;2022-10-26T06:17:17;3.33;;;1.60;;
16731;SDS011;8484;50.904;9.192;2022-10-26T06:20:23;3.47;;;1.80;;
16731;SDS011;8484;50.904;9.192;2022-10-26T06:23:22;2.70;;;1.40;;
16731;SDS011;8484;50.904;9.192;2022-10-26T06:26:23;3.10;;;1.70;;
16731;SDS011;8484;50.904;9.192;2022-10-26T06:29:20;2.00;;;1.73;;
16731;SDS011;8484;50.904;9.192;2022-10-26T06:32:15;4.37;;;1.67;;
16731;SDS011;8484;50.904;9.192;2022-10-26T06:35:06;4.67;;;2.20;;
16731;SDS011;8484;50.904;9.192;2022-10-26T06:38:00;2.83;;;2.07;;
16731;SDS011;8484;50.904;9.192;2022-10-26T06:40:49;4.57;;;1.70;;
16731;SDS011;8484;50.904;9.192;2022-10-26T06:43:36;3.13;;;1.70;;
16731;SDS011;8484;50.904;9.192;2022-10-26T06:46:25;3.50;;;1.70;;
16731;SDS011;8484;50.904;9.192;2022-10-26T06:49:17;4.73;;;1.67;;
16731;SDS011;8484;50.904;9.192;2022-10-26T06:52:09;2.53;;;1.60;;
16731;SDS011;8484;50.904;9.192;2022-10-26T06:55:00;4.63;;;1.83;;
16731;SDS011;8484;50.904;9.192;2022-10-26T06:57:48;2.67;;;1.90;;
16731;SDS011;8484;50.904;9.192;2022-10-26T07:00:34;4.43;;;1.90;;
16731;SDS011;8484;50.904;9.192;2022-10-26T07:03:20;2.30;;;1.93;;
16731;SDS011;8484;50.904;9.192;2022-10-26T07:06:07;5.13;;;2.03;;
16731;SDS011;8484;50.904;9.192;2022-10-26T07:08:53;2.43;;;1.90;;
16731;SDS011;8484;50.904;9.192;2022-10-26T07:11:39;2.73;;;1.80;;
16731;SDS011;8484;50.904;9.192;2022-10-26T07:14:24;3.03;;;1.40;;
16731;SDS011;8484;50.904;9.192;2022-10-26T07:17:10;2.57;;;1.40;;
16731;SDS011;8484;50.904;9.192;2022-10-26T07:19:55;2.67;;;1.33;;
16731;SDS011;8484;50.904;9.192;2022-10-26T07:22:42;2.07;;;1.20;;
16731;SDS011;8484;50.904;9.192;2022-10-26T07:25:28;5.43;;;1.60;;
16731;SDS011;8484;50.904;9.192;2022-10-26T07:28:13;3.80;;;1.97;;
16731;SDS011;8484;50.904;9.192;2022-10-26T07:30:59;2.80;;;1.90;;
16731;SDS011;8484;50.904;9.192;2022-10-26T07:33:45;7.30;;;2.50;;
16731;SDS011;8484;50.904;9.192;2022-10-26T07:36:30;4.67;;;2.00;;
16731;SDS011;8484;50.904;9.192;2022-10-26T07:39:17;3.90;;;2.17;;
16731;SDS011;8484;50.904;9.192;2022-10-26T07:42:03;6.03;;;2.40;;
16731;SDS011;8484;50.904;9.192;2022-10-26T07:44:49;5.10;;;2.33;;
16731;SDS011;8484;50.904;9.192;2022-10-26T07:47:34;3.93;;;2.50;;
16731;SDS011;8484;50.904;9.192;2022-10-26T07:50:20;4.23;;;2.40;;
16731;SDS011;8484;50.904;9.192;2022-10-26T07:53:05;6.53;;;2.53;;
16731;SDS011;8484;50.904;9.192;2022-10-26T07:55:53;4.53;;;2.27;;
16731;SDS011;8484;50.904;9.192;2022-10-26T07:58:39;5.17;;;2.23;;
16731;SDS011;8484;50.904;9.192;2022-10-26T08:01:24;5.13;;;2.57;;
16731;SDS011;8484;50.904;9.192;2022-10-26T08:04:10;4.13;;;2.00;;
16731;SDS011;8484;50.904;9.192;2022-10-26T08:06:55;4.80;;;2.00;;
16731;SDS011;8484;50.904;9.192;2022-10-26T08:09:41;2.87;;;1.60;;
16731;SDS011;8484;50.904;9.192;2022-10-26T08:12:28;4.50;;;1.50;;
16731;SDS011;8484;50.904;9.192;2022-10-26T08:15:13;3.10;;;1.50;;
16731;SDS011;8484;50.904;9.192;2022-10-26T08:17:59;4.20;;;1.50;;
16731;SDS011;8484;50.904;9.192;2022-10-26T08:20:44;3.23;;;1.40;;
16731;SDS011;8484;50.904;9.192;2022-10-26T08:23:30;5.73;;;1.80;;
16731;SDS011;8484;50.904;9.192;2022-10-26T08:26:15;4.07;;;1.90;;
16731;SDS011;8484;50.904;9.192;2022-10-26T08:29:02;4.43;;;1.60;;
16731;SDS011;8484;50.904;9.192;2022-10-26T08:31:48;3.10;;;1.30;;
16731;SDS011;8484;50.904;9.192;2022-10-26T08:34:33;3.67;;;1.60;;
16731;SDS011;8484;50.904;9.192;2022-10-26T08:37:19;3.73;;;1.47;;
16731;SDS011;8484;50.904;9.192;2022-10-26T08:40:06;2.57;;;1.50;;
16731;SDS011;8484;50.904;9.192;2022-10-26T08:42:55;5.03;;;1.77;;
16731;SDS011;8484;50.904;9.192;2022-10-26T08:45:46;4.53;;;1.57;;
16731;SDS011;8484;50.904;9.192;2022-10-26T08:48:36;3.70;;;1.70;;
16731;SDS011;8484;50.904;9.192;2022-10-26T08:51:24;2.30;;;1.33;;
16731;SDS011;8484;50.904;9.192;2022-10-26T08:54:18;3.03;;;1.60;;
16731;SDS011;8484;50.904;9.192;2022-10-26T08:57:13;4.40;;;1.80;;
16731;SDS011;8484;50.904;9.192;2022-10-26T09:00:04;4.07;;;1.50;;
16731;SDS011;8484;50.904;9.192;2022-10-26T09:02:52;3.03;;;1.60;;
16731;SDS011;8484;50.904;9.192;2022-10-26T09:05:40;3.50;;;1.90;;
16731;SDS011;8484;50.904;9.192;2022-10-26T09:08:34;2.17;;;1.70;;
16731;SDS011;8484;50.904;9.192;2022-10-26T09:11:46;3.17;;;1.57;;
16731;SDS011;8484;50.904;9.192;2022-10-26T09:14:47;2.77;;;1.43;;
16731;SDS011;8484;50.904;9.192;2022-10-26T09:17:41;3.17;;;1.60;;
16731;SDS011;8484;50.904;9.192;2022-10-26T09:20:40;3.70;;;1.37;;
16731;SDS011;8484;50.904;9.192;2022-10-26T09:23:43;2.70;;;1.43;;
16731;SDS011;8484;50.904;9.192;2022-10-26T09:26:40;2.40;;;1.20;;
16731;SDS011;8484;50.904;9.192;2022-10-26T09:29:38;3.20;;;1.13;;
16731;SDS011;8484;50.904;9.192;2022-10-26T09:32:26;2.60;;;1.30;;
16731;SDS011;8484;50.904;9.192;2022-10-26T09:35:19;2.90;;;1.50;;
16731;SDS011;8484;50.904;9.192;2022-10-26T09:38:09;2.80;;;1.30;;
16731;SDS011;8484;50.904;9.192;2022-10-26T09:41:00;2.63;;;1.33;;
16731;SDS011;8484;50.904;9.192;2022-10-26T09:43:49;2.97;;;1.30;;
16731;SDS011;8484;50.904;9.192;2022-10-26T09:46:43;2.77;;;1.23;;
16731;SDS011;8484;50.904;9.192;2022-10-26T09:49:34;2.67;;;1.47;;
16731;SDS011;8484;50.904;9.192;2022-10-26T09:52:24;3.90;;;1.40;;
16731;SDS011;8484;50.904;9.192;2022-10-26T09:55:11;4.33;;;1.50;;
16731;SDS011;8484;50.904;9.192;2022-10-26T09:57:58;2.60;;;1.30;;
16731;SDS011;8484;50.904;9.192;2022-10-26T10:00:47;4.43;;;1.80;;
16731;SDS011;8484;50.904;9.192;2022-10-26T10:03:32;5.50;;;1.63;;
16731;SDS011;8484;50.904;9.192;2022-10-26T10:06:18;3.70;;;1.43;;
16731;SDS011;8484;50.904;9.192;2022-10-26T10:09:05;2.30;;;1.20;;
16731;SDS011;8484;50.904;9.192;2022-10-26T10:11:56;5.57;;;1.20;;
16731;SDS011;8484;50.904;9.192;2022-10-26T10:14:53;3.33;;;1.57;;
16731;SDS011;8484;50.904;9.192;2022-10-26T10:17:41;2.97;;;1.23;;
16731;SDS011;8484;50.904;9.192;2022-10-26T10:20:32;3.53;;;1.30;;
16731;SDS011;8484;50.904;9.192;2022-10-26T10:23:23;3.60;;;1.30;;
16731;SDS011;8484;50.904;9.192;2022-10-26T10:26:11;2.67;;;1.10;;
16731;SDS011;8484;50.904;9.192;2022-10-26T10:28:58;3.23;;;1.17;;
16731;SDS011;8484;50.904;9.192;2022-10-26T10:31:46;3.90;;;0.90;;
16731;SDS011;8484;50.904;9.192;2022-10-26T10:34:40;3.63;;;1.30;;
16731;SDS011;8484;50.904;9.192;2022-10-26T10:37:26;2.30;;;0.93;;
16731;SDS011;8484;50.904;9.192;2022-10-26T10:40:16;3.10;;;0.90;;
16731;SDS011;8484;50.904;9.192;2022-10-26T10:43:05;2.93;;;0.97;;
16731;SDS011;8484;50.904;9.192;2022-10-26T10:45:58;5.80;;;1.20;;
16731;SDS011;8484;50.904;9.192;2022-10-26T10:48:45;2.40;;;1.00;;
16731;SDS011;8484;50.904;9.192;2022-10-26T10:51:35;2.63;;;0.80;;
16731;SDS011;8484;50.904;9.192;2022-10-26T10:54:24;4.53;;;0.90;;
16731;SDS011;8484;50.904;9.192;2022-10-26T10:57:15;3.10;;;0.83;;
16731;SDS011;8484;50.904;9.192;2022-10-26T11:00:09;4.20;;;1.03;;
16731;SDS011;8484;50.904;9.192;2022-10-26T11:03:03;3.13;;;0.90;;
16731;SDS011;8484;50.904;9.192;2022-10-26T11:06:12;2.23;;;1.20;;
16731;SDS011;8484;50.904;9.192;2022-10-26T11:09:04;1.53;;;0.93;;
16731;SDS011;8484;50.904;9.192;2022-10-26T11:11:54;2.53;;;0.90;;
16731;SDS011;8484;50.904;9.192;2022-10-26T11:14:43;2.47;;;1.00;;
16731;SDS011;8484;50.904;9.192;2022-10-26T11:17:31;3.80;;;1.10;;
16731;SDS011;8484;50.904;9.192;2022-10-26T11:20:23;5.43;;;1.23;;
16731;SDS011;8484;50.904;9.192;2022-10-26T11:23:11;1.97;;;0.90;;
16731;SDS011;8484;50.904;9.192;2022-10-26T11:26:04;3.80;;;1.00;;
16731;SDS011;8484;50.904;9.192;2022-10-26T11:28:57;2.53;;;1.10;;
16731;SDS011;8484;50.904;9.192;2022-10-26T11:31:45;1.23;;;1.10;;
16731;SDS011;8484;50.904;9.192;2022-10-26T11:34:35;3.00;;;1.20;;
16731;SDS011;8484;50.904;9.192;2022-10-26T11:37:29;2.27;;;0.90;;
16731;SDS011;8484;50.904;9.192;2022-10-26T11:40:24;3.23;;;1.07;;
16731;SDS011;8484;50.904;9.192;2022-10-26T11:43:15;2.37;;;1.00;;
16731;SDS011;8484;50.904;9.192;2022-10-26T11:46:08;3.17;;;1.20;;
16731;SDS011;8484;50.904;9.192;2022-10-26T11:49:00;2.37;;;1.20;;
16731;SDS011;8484;50.904;9.192;2022-10-26T11:51:51;3.43;;;1.27;;
16731;SDS011;8484;50.904;9.192;2022-10-26T11:54:44;3.37;;;1.10;;
16731;SDS011;8484;50.904;9.192;2022-10-26T11:57:35;2.40;;;1.20;;
16731;SDS011;8484;50.904;9.192;2022-10-26T12:00:22;3.07;;;1.47;;
16731;SDS011;8484;50.904;9.192;2022-10-26T12:03:08;3.20;;;1.43;;
16731;SDS011;8484;50.904;9.192;2022-10-26T12:05:57;4.73;;;1.67;;
16731;SDS011;8484;50.904;9.192;2022-10-26T12:08:45;2.53;;;1.50;;
16731;SDS011;8484;50.904;9.192;2022-10-26T12:11:37;3.67;;;1.40;;
16731;SDS011;8484;50.904;9.192;2022-10-26T12:14:29;2.40;;;1.27;;
16731;SDS011;8484;50.904;9.192;2022-10-26T12:17:24;3.97;;;1.50;;
16731;SDS011;8484;50.904;9.192;2022-10-26T12:20:17;7.00;;;1.60;;
16731;SDS011;8484;50.904;9.192;2022-10-26T12:23:31;2.57;;;1.03;;
16731;SDS011;8484;50.904;9.192;2022-10-26T12:29:33;4.30;;;1.33;;
16731;SDS011;8484;50.904;9.192;2022-10-26T12:35:35;2.73;;;1.17;;
16731;SDS011;8484;50.904;9.192;2022-10-26T12:38:41;2.40;;;1.17;;
16731;SDS011;8484;50.904;9.192;2022-10-26T12:41:42;7.30;;;1.50;;
16731;SDS011;8484;50.904;9.192;2022-10-26T12:44:39;5.37;;;1.30;;
16731;SDS011;8484;50.904;9.192;2022-10-26T12:47:59;6.27;;;1.53;;
16731;SDS011;8484;50.904;9.192;2022-10-26T12:50:46;9.47;;;1.30;;
16731;SDS011;8484;50.904;9.192;2022-10-26T12:53:31;4.83;;;1.40;;
16731;SDS011;8484;50.904;9.192;2022-10-26T12:56:17;4.17;;;1.47;;
16731;SDS011;8484;50.904;9.192;2022-10-26T12:59:20;3.13;;;1.13;;
16731;SDS011;8484;50.904;9.192;2022-10-26T13:02:23;3.40;;;1.40;;
16731;SDS011;8484;50.904;9.192;2022-10-26T13:05:35;4.27;;;1.30;;
16731;SDS011;8484;50.904;9.192;2022-10-26T13:08:38;5.57;;;1.53;;
16731;SDS011;8484;50.904;9.192;2022-10-26T13:11:27;2.53;;;1.40;;
16731;SDS011;8484;50.904;9.192;2022-10-26T13:14:17;5.17;;;1.57;;
16731;SDS011;8484;50.904;9.192;2022-10-26T13:17:16;2.50;;;1.33;;
16731;SDS011;8484;50.904;9.192;2022-10-26T13:20:13;3.13;;;1.37;;
16731;SDS011;8484;50.904;9.192;2022-10-26T13:23:01;2.53;;;1.20;;
16731;SDS011;8484;50.904;9.192;2022-10-26T13:26:00;5.10;;;1.60;;
16731;SDS011;8484;50.904;9.192;2022-10-26T13:28:48;3.57;;;1.20;;
16731;SDS011;8484;50.904;9.192;2022-10-26T13:34:43;4.07;;;1.37;;
16731;SDS011;8484;50.904;9.192;2022-10-26T13:37:31;2.33;;;1.10;;
16731;SDS011;8484;50.904;9.192;2022-10-26T13:40:19;2.03;;;0.90;;
16731;SDS011;8484;50.904;9.192;2022-10-26T13:43:10;2.53;;;1.30;;
16731;SDS011;8484;50.904;9.192;2022-10-26T13:46:01;3.27;;;1.10;;
16731;SDS011;8484;50.904;9.192;2022-10-26T13:48:48;3.53;;;1.30;;
16731;SDS011;8484;50.904;9.192;2022-10-26T13:51:39;3.40;;;1.30;;
16731;SDS011;8484;50.904;9.192;2022-10-26T13:54:28;4.33;;;1.13;;
16731;SDS011;8484;50.904;9.192;2022-10-26T13:57:19;6.70;;;1.60;;
16731;SDS011;8484;50.904;9.192;2022-10-26T14:00:08;3.73;;;1.40;;
16731;SDS011;8484;50.904;9.192;2022-10-26T14:03:10;5.30;;;1.53;;
16731;SDS011;8484;50.904;9.192;2022-10-26T14:05:57;4.60;;;1.47;;
16731;SDS011;8484;50.904;9.192;2022-10-26T14:08:44;1.80;;;1.10;;
16731;SDS011;8484;50.904;9.192;2022-10-26T14:11:33;3.67;;;1.30;;
16731;SDS011;8484;50.904;9.192;2022-10-26T14:14:21;2.30;;;1.10;;
16731;SDS011;8484;50.904;9.192;2022-10-26T14:17:13;3.43;;;1.17;;
16731;SDS011;8484;50.904;9.192;2022-10-26T14:20:03;5.23;;;1.20;;
16731;SDS011;8484;50.904;9.192;2022-10-26T14:22:49;3.40;;;1.20;;
16731;SDS011;8484;50.904;9.192;2022-10-26T14:25:36;3.93;;;1.00;;
16731;SDS011;8484;50.904;9.192;2022-10-26T14:28:23;5.60;;;1.60;;
16731;SDS011;8484;50.904;9.192;2022-10-26T14:31:09;2.30;;;1.10;;
16731;SDS011;8484;50.904;9.192;2022-10-26T14:33:56;4.37;;;1.20;;
16731;SDS011;8484;50.904;9.192;2022-10-26T14:36:44;4.73;;;1.03;;
16731;SDS011;8484;50.904;9.192;2022-10-26T14:39:33;4.93;;;1.40;;
16731;SDS011;8484;50.904;9.192;2022-10-26T14:42:25;2.70;;;1.50;;
16731;SDS011;8484;50.904;9.192;2022-10-26T14:45:19;3.87;;;1.30;;
16731;SDS011;8484;50.904;9.192;2022-10-26T14:48:14;2.63;;;1.30;;
16731;SDS011;8484;50.904;9.192;2022-10-26T14:51:09;3.27;;;1.67;;
16731;SDS011;8484;50.904;9.192;2022-10-26T14:53:59;5.00;;;1.70;;
16731;SDS011;8484;50.904;9.192;2022-10-26T14:56:46;4.53;;;1.57;;
16731;SDS011;8484;50.904;9.192;2022-10-26T14:59:33;2.33;;;1.30;;
16731;SDS011;8484;50.904;9.192;2022-10-26T15:02:18;1.97;;;1.33;;
16731;SDS011;8484;50.904;9.192;2022-10-26T15:05:17;6.00;;;1.60;;
16731;SDS011;8484;50.904;9.192;2022-10-26T15:11:30;2.20;;;1.30;;
16731;SDS011;8484;50.904;9.192;2022-10-26T15:14:17;3.07;;;1.33;;
16731;SDS011;8484;50.904;9.192;2022-10-26T15:17:04;8.13;;;1.70;;
16731;SDS011;8484;50.904;9.192;2022-10-26T15:19:50;5.60;;;1.30;;
16731;SDS011;8484;50.904;9.192;2022-10-26T15:22:36;2.63;;;1.47;;
16731;SDS011;8484;50.904;9.192;2022-10-26T15:25:22;5.83;;;1.50;;
16731;SDS011;8484;50.904;9.192;2022-10-26T15:28:19;6.27;;;1.50;;
16731;SDS011;8484;50.904;9.192;2022-10-26T15:31:07;3.13;;;1.60;;
16731;SDS011;8484;50.904;9.192;2022-10-26T15:34:13;4.93;;;1.80;;
16731;SDS011;8484;50.904;9.192;2022-10-26T15:36:59;3.97;;;1.50;;
16731;SDS011;8484;50.904;9.192;2022-10-26T15:39:44;3.23;;;1.37;;
16731;SDS011;8484;50.904;9.192;2022-10-26T15:42:30;2.40;;;1.43;;
16731;SDS011;8484;50.904;9.192;2022-10-26T15:45:16;3.00;;;1.80;;
16731;SDS011;8484;50.904;9.192;2022-10-26T15:48:17;2.90;;;1.60;;
16731;SDS011;8484;50.904;9.192;2022-10-26T15:51:09;3.50;;;1.60;;
16731;SDS011;8484;50.904;9.192;2022-10-26T15:53:56;4.47;;;1.90;;
16731;SDS011;8484;50.904;9.192;2022-10-26T15:56:43;5.23;;;1.57;;
16731;SDS011;8484;50.904;9.192;2022-10-26T15:59:29;2.60;;;1.60;;
16731;SDS011;8484;50.904;9.192;2022-10-26T16:02:14;9.63;;;2.00;;
16731;SDS011;8484;50.904;9.192;2022-10-26T16:05:01;2.93;;;1.60;;
16731;SDS011;8484;50.904;9.192;2022-10-26T16:07:48;2.30;;;1.67;;
16731;SDS011;8484;50.904;9.192;2022-10-26T16:10:34;2.13;;;1.40;;
16731;SDS011;8484;50.904;9.192;2022-10-26T16:13:20;5.50;;;1.70;;
16731;SDS011;8484;50.904;9.192;2022-10-26T16:16:06;7.97;;;2.20;;
16731;SDS011;8484;50.904;9.192;2022-10-26T16:18:56;6.47;;;1.80;;
16731;SDS011;8484;50.904;9.192;2022-10-26T16:21:41;3.20;;;1.70;;
16731;SDS011;8484;50.904;9.192;2022-10-26T16:24:29;4.53;;;1.53;;
16731;SDS011;8484;50.904;9.192;2022-10-26T16:27:15;4.97;;;1.50;;
16731;SDS011;8484;50.904;9.192;2022-10-26T16:30:00;3.87;;;1.70;;
16731;SDS011;8484;50.904;9.192;2022-10-26T16:32:46;5.00;;;1.80;;
16731;SDS011;8484;50.904;9.192;2022-10-26T16:35:32;6.30;;;1.87;;
16731;SDS011;8484;50.904;9.192;2022-10-26T16:38:17;8.27;;;1.70;;
16731;SDS011;8484;50.904;9.192;2022-10-26T16:41:05;5.27;;;1.60;;
16731;SDS011;8484;50.904;9.192;2022-10-26T16:43:51;5.00;;;1.77;;
16731;SDS011;8484;50.904;9.192;2022-10-26T16:46:37;4.33;;;2.47;;
16731;SDS011;8484;50.904;9.192;2022-10-26T16:49:23;6.13;;;2.20;;
16731;SDS011;8484;50.904;9.192;2022-10-26T16:52:09;10.50;;;2.40;;
16731;SDS011;8484;50.904;9.192;2022-10-26T16:54:55;3.10;;;1.57;;
16731;SDS011;8484;50.904;9.192;2022-10-26T16:57:42;5.17;;;1.83;;
16731;SDS011;8484;50.904;9.192;2022-10-26T17:00:28;8.53;;;2.00;;
16731;SDS011;8484;50.904;9.192;2022-10-26T17:03:14;5.00;;;2.20;;
16731;SDS011;8484;50.904;9.192;2022-10-26T17:06:00;3.37;;;1.80;;
16731;SDS011;8484;50.904;9.192;2022-10-26T17:08:47;5.17;;;1.60;;
16731;SDS011;8484;50.904;9.192;2022-10-26T17:11:33;10.83;;;2.43;;
16731;SDS011;8484;50.904;9.192;2022-10-26T17:14:20;4.93;;;2.00;;
16731;SDS011;8484;50.904;9.192;2022-10-26T17:17:06;2.50;;;1.60;;
16731;SDS011;8484;50.904;9.192;2022-10-26T17:19:52;3.87;;;1.80;;
16731;SDS011;8484;50.904;9.192;2022-10-26T17:22:37;7.00;;;1.97;;
16731;SDS011;8484;50.904;9.192;2022-10-26T17:25:23;5.57;;;1.80;;
16731;SDS011;8484;50.904;9.192;2022-10-26T17:28:08;4.87;;;2.20;;
16731;SDS011;8484;50.904;9.192;2022-10-26T17:31:01;4.50;;;1.90;;
16731;SDS011;8484;50.904;9.192;2022-10-26T17:33:47;4.87;;;2.03;;
16731;SDS011;8484;50.904;9.192;2022-10-26T17:36:33;6.10;;;2.10;;
16731;SDS011;8484;50.904;9.192;2022-10-26T17:39:19;5.33;;;2.97;;
16731;SDS011;8484;50.904;9.192;2022-10-26T17:42:04;3.03;;;2.10;;